sensor_id;sensor_type;location;lat;lon;timestamp;P1;durP1;ratioP1;P2;durP2;ratioP2
57667;SDS011;43499;52.366;12.912;2022-12-10T00:00:42;57.38;;;20.35;;
57667;SDS011;43499;52.366;12.912;2022-12-10T00:01:44;48.28;;;20.38;;
57667;SDS011;43499;52.366;12.912;2022-12-10T00:02:46;49.72;;;19.23;;
57667;SDS011;43499;52.366;12.912;2022-12-10T00:03:47;48.78;;;22.25;;
57667;SDS011;43499;52.366;12.912;2022-12-10T00:04:48;51.70;;;22.42;;
57667;SDS011;43499;52.366;12.912;2022-12-10T00:05:49;45.55;;;18.77;;
57667;SDS011;43499;52.366;12.912;2022-12-10T00:06:50;48.92;;;20.65;;
57667;SDS011;43499;52.366;12.912;2022-12-10T00:07:51;53.78;;;22.05;;
57667;SDS011;43499;52.366;12.912;2022-12-10T00:08:52;46.75;;;20.10;;
57667;SDS011;43499;52.366;12.912;2022-12-10T00:09:53;42.17;;;20.70;;
57667;SDS011;43499;52.366;12.912;2022-12-10T00:10:54;45.35;;;19.13;;
57667;SDS011;43499;52.366;12.912;2022-12-10T00:11:55;41.65;;;19.13;;
57667;SDS011;43499;52.366;12.912;2022-12-10T00:12:56;45.38;;;19.25;;
57667;SDS011;43499;52.366;12.912;2022-12-10T00:13:58;40.83;;;20.10;;
57667;SDS011;43499;52.366;12.912;2022-12-10T00:14:59;44.80;;;20.00;;
57667;SDS011;43499;52.366;12.912;2022-12-10T00:16:01;42.22;;;18.25;;
57667;SDS011;43499;52.366;12.912;2022-12-10T00:17:03;43.25;;;19.55;;
57667;SDS011;43499;52.366;12.912;2022-12-10T00:18:04;43.17;;;18.88;;
57667;SDS011;43499;52.366;12.912;2022-12-10T00:19:05;46.53;;;20.42;;
57667;SDS011;43499;52.366;12.912;2022-12-10T00:20:07;46.60;;;19.40;;
57667;SDS011;43499;52.366;12.912;2022-12-10T00:21:11;41.97;;;19.77;;
57667;SDS011;43499;52.366;12.912;2022-12-10T00:22:13;42.97;;;17.90;;
57667;SDS011;43499;52.366;12.912;2022-12-10T00:23:14;41.13;;;18.15;;
57667;SDS011;43499;52.366;12.912;2022-12-10T00:24:15;47.03;;;20.02;;
57667;SDS011;43499;52.366;12.912;2022-12-10T00:25:16;49.92;;;19.70;;
57667;SDS011;43499;52.366;12.912;2022-12-10T00:26:19;41.53;;;18.80;;
57667;SDS011;43499;52.366;12.912;2022-12-10T00:27:26;45.78;;;19.10;;
57667;SDS011;43499;52.366;12.912;2022-12-10T00:28:27;40.65;;;18.48;;
57667;SDS011;43499;52.366;12.912;2022-12-10T00:29:28;47.88;;;20.70;;
57667;SDS011;43499;52.366;12.912;2022-12-10T00:30:29;46.95;;;19.58;;
57667;SDS011;43499;52.366;12.912;2022-12-10T00:31:32;49.95;;;21.15;;
57667;SDS011;43499;52.366;12.912;2022-12-10T00:32:34;39.13;;;18.08;;
57667;SDS011;43499;52.366;12.912;2022-12-10T00:33:35;41.60;;;19.58;;
57667;SDS011;43499;52.366;12.912;2022-12-10T00:34:36;41.58;;;17.80;;
57667;SDS011;43499;52.366;12.912;2022-12-10T00:35:38;43.50;;;19.25;;
57667;SDS011;43499;52.366;12.912;2022-12-10T00:36:44;43.35;;;18.70;;
57667;SDS011;43499;52.366;12.912;2022-12-10T00:37:47;41.97;;;19.33;;
57667;SDS011;43499;52.366;12.912;2022-12-10T00:38:48;40.10;;;18.35;;
57667;SDS011;43499;52.366;12.912;2022-12-10T00:39:50;45.65;;;19.20;;
57667;SDS011;43499;52.366;12.912;2022-12-10T00:40:51;48.75;;;20.05;;
57667;SDS011;43499;52.366;12.912;2022-12-10T00:41:52;39.70;;;18.67;;
57667;SDS011;43499;52.366;12.912;2022-12-10T00:42:54;42.55;;;18.27;;
57667;SDS011;43499;52.366;12.912;2022-12-10T00:43:55;40.25;;;18.63;;
57667;SDS011;43499;52.366;12.912;2022-12-10T00:44:56;43.13;;;17.85;;
57667;SDS011;43499;52.366;12.912;2022-12-10T00:45:57;36.60;;;17.17;;
57667;SDS011;43499;52.366;12.912;2022-12-10T00:46:59;40.08;;;16.85;;
57667;SDS011;43499;52.366;12.912;2022-12-10T00:48:00;41.58;;;17.52;;
57667;SDS011;43499;52.366;12.912;2022-12-10T00:49:02;40.05;;;17.00;;
57667;SDS011;43499;52.366;12.912;2022-12-10T00:50:03;39.78;;;17.30;;
57667;SDS011;43499;52.366;12.912;2022-12-10T00:51:06;44.33;;;18.55;;
57667;SDS011;43499;52.366;12.912;2022-12-10T00:52:10;39.67;;;18.77;;
57667;SDS011;43499;52.366;12.912;2022-12-10T00:53:11;41.28;;;17.55;;
57667;SDS011;43499;52.366;12.912;2022-12-10T00:54:12;41.60;;;17.63;;
57667;SDS011;43499;52.366;12.912;2022-12-10T00:55:13;33.92;;;16.80;;
57667;SDS011;43499;52.366;12.912;2022-12-10T00:56:15;39.70;;;17.50;;
57667;SDS011;43499;52.366;12.912;2022-12-10T00:57:17;40.10;;;18.77;;
57667;SDS011;43499;52.366;12.912;2022-12-10T00:58:18;43.40;;;17.35;;
57667;SDS011;43499;52.366;12.912;2022-12-10T00:59:20;41.17;;;17.50;;
57667;SDS011;43499;52.366;12.912;2022-12-10T01:00:21;44.47;;;18.08;;
57667;SDS011;43499;52.366;12.912;2022-12-10T01:03:33;39.92;;;16.90;;
57667;SDS011;43499;52.366;12.912;2022-12-10T01:04:34;37.95;;;16.23;;
57667;SDS011;43499;52.366;12.912;2022-12-10T01:05:35;38.83;;;16.60;;
57667;SDS011;43499;52.366;12.912;2022-12-10T01:06:39;34.92;;;16.00;;
57667;SDS011;43499;52.366;12.912;2022-12-10T01:07:43;36.58;;;16.30;;
57667;SDS011;43499;52.366;12.912;2022-12-10T01:08:45;39.30;;;16.75;;
57667;SDS011;43499;52.366;12.912;2022-12-10T01:09:46;38.88;;;16.77;;
57667;SDS011;43499;52.366;12.912;2022-12-10T01:10:54;33.78;;;16.50;;
57667;SDS011;43499;52.366;12.912;2022-12-10T01:12:00;36.88;;;17.42;;
57667;SDS011;43499;52.366;12.912;2022-12-10T01:13:02;39.13;;;17.63;;
57667;SDS011;43499;52.366;12.912;2022-12-10T01:14:04;38.15;;;16.38;;
57667;SDS011;43499;52.366;12.912;2022-12-10T01:15:10;40.67;;;16.15;;
57667;SDS011;43499;52.366;12.912;2022-12-10T01:16:12;37.90;;;16.55;;
57667;SDS011;43499;52.366;12.912;2022-12-10T01:17:14;42.95;;;17.75;;
57667;SDS011;43499;52.366;12.912;2022-12-10T01:18:15;37.33;;;16.63;;
57667;SDS011;43499;52.366;12.912;2022-12-10T01:19:16;38.83;;;17.00;;
57667;SDS011;43499;52.366;12.912;2022-12-10T01:20:17;36.78;;;16.70;;
57667;SDS011;43499;52.366;12.912;2022-12-10T01:21:18;36.00;;;16.60;;
57667;SDS011;43499;52.366;12.912;2022-12-10T01:22:20;35.92;;;15.73;;
57667;SDS011;43499;52.366;12.912;2022-12-10T01:23:21;42.38;;;17.25;;
57667;SDS011;43499;52.366;12.912;2022-12-10T01:24:23;38.40;;;16.27;;
57667;SDS011;43499;52.366;12.912;2022-12-10T01:25:25;37.13;;;16.50;;
57667;SDS011;43499;52.366;12.912;2022-12-10T01:26:28;35.55;;;16.15;;
57667;SDS011;43499;52.366;12.912;2022-12-10T01:27:31;35.95;;;16.10;;
57667;SDS011;43499;52.366;12.912;2022-12-10T01:28:33;36.60;;;16.23;;
57667;SDS011;43499;52.366;12.912;2022-12-10T01:29:35;41.67;;;16.67;;
57667;SDS011;43499;52.366;12.912;2022-12-10T01:30:36;35.38;;;16.52;;
57667;SDS011;43499;52.366;12.912;2022-12-10T01:31:37;34.58;;;15.65;;
57667;SDS011;43499;52.366;12.912;2022-12-10T01:32:40;36.58;;;17.02;;
57667;SDS011;43499;52.366;12.912;2022-12-10T01:33:41;40.70;;;17.38;;
57667;SDS011;43499;52.366;12.912;2022-12-10T01:34:42;32.70;;;15.02;;
57667;SDS011;43499;52.366;12.912;2022-12-10T01:35:43;40.55;;;17.20;;
57667;SDS011;43499;52.366;12.912;2022-12-10T01:36:44;36.30;;;16.10;;
57667;SDS011;43499;52.366;12.912;2022-12-10T01:37:49;34.53;;;15.48;;
57667;SDS011;43499;52.366;12.912;2022-12-10T01:38:50;36.25;;;15.38;;
57667;SDS011;43499;52.366;12.912;2022-12-10T01:39:51;35.97;;;15.45;;
57667;SDS011;43499;52.366;12.912;2022-12-10T01:40:53;35.35;;;16.70;;
57667;SDS011;43499;52.366;12.912;2022-12-10T01:41:55;32.75;;;15.07;;
57667;SDS011;43499;52.366;12.912;2022-12-10T01:42:57;37.55;;;15.98;;
57667;SDS011;43499;52.366;12.912;2022-12-10T01:44:00;31.33;;;15.10;;
57667;SDS011;43499;52.366;12.912;2022-12-10T01:45:07;35.28;;;16.50;;
57667;SDS011;43499;52.366;12.912;2022-12-10T01:46:11;37.38;;;16.77;;
57667;SDS011;43499;52.366;12.912;2022-12-10T01:47:12;33.28;;;15.57;;
57667;SDS011;43499;52.366;12.912;2022-12-10T01:48:13;34.92;;;16.67;;
57667;SDS011;43499;52.366;12.912;2022-12-10T01:49:18;39.30;;;17.77;;
57667;SDS011;43499;52.366;12.912;2022-12-10T01:50:22;35.10;;;16.27;;
57667;SDS011;43499;52.366;12.912;2022-12-10T01:51:23;34.67;;;15.27;;
57667;SDS011;43499;52.366;12.912;2022-12-10T01:52:26;33.53;;;15.85;;
57667;SDS011;43499;52.366;12.912;2022-12-10T01:53:28;32.67;;;15.32;;
57667;SDS011;43499;52.366;12.912;2022-12-10T01:54:32;32.28;;;14.32;;
57667;SDS011;43499;52.366;12.912;2022-12-10T01:55:43;34.38;;;15.45;;
57667;SDS011;43499;52.366;12.912;2022-12-10T01:56:59;34.17;;;14.45;;
57667;SDS011;43499;52.366;12.912;2022-12-10T01:58:03;29.70;;;14.93;;
57667;SDS011;43499;52.366;12.912;2022-12-10T01:59:04;32.65;;;15.32;;
57667;SDS011;43499;52.366;12.912;2022-12-10T02:00:06;36.63;;;16.05;;
57667;SDS011;43499;52.366;12.912;2022-12-10T02:02:24;33.33;;;15.15;;
57667;SDS011;43499;52.366;12.912;2022-12-10T02:05:09;25.77;;;13.45;;
57667;SDS011;43499;52.366;12.912;2022-12-10T02:06:41;33.45;;;14.63;;
57667;SDS011;43499;52.366;12.912;2022-12-10T02:07:59;31.52;;;13.50;;
57667;SDS011;43499;52.366;12.912;2022-12-10T02:09:26;32.65;;;15.10;;
57667;SDS011;43499;52.366;12.912;2022-12-10T02:12:02;36.85;;;16.23;;
57667;SDS011;43499;52.366;12.912;2022-12-10T02:13:12;39.30;;;17.30;;
57667;SDS011;43499;52.366;12.912;2022-12-10T02:14:33;34.92;;;15.30;;
57667;SDS011;43499;52.366;12.912;2022-12-10T02:17:24;31.70;;;13.77;;
57667;SDS011;43499;52.366;12.912;2022-12-10T02:18:30;34.88;;;15.50;;
57667;SDS011;43499;52.366;12.912;2022-12-10T02:19:44;35.38;;;15.88;;
57667;SDS011;43499;52.366;12.912;2022-12-10T02:20:56;33.38;;;14.98;;
57667;SDS011;43499;52.366;12.912;2022-12-10T02:22:01;33.65;;;15.30;;
57667;SDS011;43499;52.366;12.912;2022-12-10T02:23:08;32.25;;;15.20;;
57667;SDS011;43499;52.366;12.912;2022-12-10T02:24:14;31.30;;;14.57;;
57667;SDS011;43499;52.366;12.912;2022-12-10T02:25:20;31.35;;;14.50;;
57667;SDS011;43499;52.366;12.912;2022-12-10T02:26:30;36.83;;;16.55;;
57667;SDS011;43499;52.366;12.912;2022-12-10T02:29:13;30.95;;;14.77;;
57667;SDS011;43499;52.366;12.912;2022-12-10T02:30:17;34.72;;;15.38;;
57667;SDS011;43499;52.366;12.912;2022-12-10T02:31:19;37.28;;;15.68;;
57667;SDS011;43499;52.366;12.912;2022-12-10T02:32:26;40.70;;;16.13;;
57667;SDS011;43499;52.366;12.912;2022-12-10T02:33:37;33.03;;;14.85;;
57667;SDS011;43499;52.366;12.912;2022-12-10T02:34:48;36.80;;;16.05;;
57667;SDS011;43499;52.366;12.912;2022-12-10T02:35:52;32.33;;;15.43;;
57667;SDS011;43499;52.366;12.912;2022-12-10T02:36:56;35.17;;;15.68;;
57667;SDS011;43499;52.366;12.912;2022-12-10T02:38:05;35.17;;;14.15;;
57667;SDS011;43499;52.366;12.912;2022-12-10T02:39:12;35.40;;;15.52;;
57667;SDS011;43499;52.366;12.912;2022-12-10T02:40:24;30.58;;;15.48;;
57667;SDS011;43499;52.366;12.912;2022-12-10T02:41:33;31.35;;;14.98;;
57667;SDS011;43499;52.366;12.912;2022-12-10T02:42:38;30.23;;;14.52;;
57667;SDS011;43499;52.366;12.912;2022-12-10T02:43:43;35.60;;;15.93;;
57667;SDS011;43499;52.366;12.912;2022-12-10T02:44:48;31.63;;;15.68;;
57667;SDS011;43499;52.366;12.912;2022-12-10T02:45:54;35.00;;;14.68;;
57667;SDS011;43499;52.366;12.912;2022-12-10T02:46:56;30.92;;;14.02;;
57667;SDS011;43499;52.366;12.912;2022-12-10T02:48:05;35.80;;;14.85;;
57667;SDS011;43499;52.366;12.912;2022-12-10T02:49:12;28.90;;;13.55;;
57667;SDS011;43499;52.366;12.912;2022-12-10T02:50:15;33.90;;;14.07;;
57667;SDS011;43499;52.366;12.912;2022-12-10T02:51:23;34.00;;;14.18;;
57667;SDS011;43499;52.366;12.912;2022-12-10T02:52:24;29.08;;;13.88;;
57667;SDS011;43499;52.366;12.912;2022-12-10T02:53:27;33.28;;;14.68;;
57667;SDS011;43499;52.366;12.912;2022-12-10T02:54:41;29.60;;;13.48;;
57667;SDS011;43499;52.366;12.912;2022-12-10T02:55:52;31.80;;;14.57;;
57667;SDS011;43499;52.366;12.912;2022-12-10T02:57:24;33.95;;;15.75;;
57667;SDS011;43499;52.366;12.912;2022-12-10T02:58:55;29.90;;;13.75;;
57667;SDS011;43499;52.366;12.912;2022-12-10T03:00:11;30.67;;;13.98;;
57667;SDS011;43499;52.366;12.912;2022-12-10T03:01:51;30.52;;;14.27;;
57667;SDS011;43499;52.366;12.912;2022-12-10T03:03:11;30.20;;;13.50;;
57667;SDS011;43499;52.366;12.912;2022-12-10T03:04:26;30.20;;;13.52;;
57667;SDS011;43499;52.366;12.912;2022-12-10T03:05:45;32.15;;;14.65;;
57667;SDS011;43499;52.366;12.912;2022-12-10T03:07:07;35.08;;;15.82;;
57667;SDS011;43499;52.366;12.912;2022-12-10T03:08:24;40.47;;;15.60;;
57667;SDS011;43499;52.366;12.912;2022-12-10T03:09:37;29.83;;;14.05;;
57667;SDS011;43499;52.366;12.912;2022-12-10T03:10:57;33.38;;;14.88;;
57667;SDS011;43499;52.366;12.912;2022-12-10T03:12:39;30.98;;;14.38;;
57667;SDS011;43499;52.366;12.912;2022-12-10T03:13:47;29.42;;;14.02;;
57667;SDS011;43499;52.366;12.912;2022-12-10T03:14:52;32.72;;;13.85;;
57667;SDS011;43499;52.366;12.912;2022-12-10T03:15:55;29.67;;;14.18;;
57667;SDS011;43499;52.366;12.912;2022-12-10T03:17:00;30.75;;;13.18;;
57667;SDS011;43499;52.366;12.912;2022-12-10T03:18:03;33.75;;;14.07;;
57667;SDS011;43499;52.366;12.912;2022-12-10T03:19:07;32.95;;;14.27;;
57667;SDS011;43499;52.366;12.912;2022-12-10T03:20:13;31.83;;;13.60;;
57667;SDS011;43499;52.366;12.912;2022-12-10T03:21:16;30.67;;;13.57;;
57667;SDS011;43499;52.366;12.912;2022-12-10T03:22:18;32.45;;;15.02;;
57667;SDS011;43499;52.366;12.912;2022-12-10T03:23:20;30.95;;;15.57;;
57667;SDS011;43499;52.366;12.912;2022-12-10T03:24:22;30.58;;;14.70;;
57667;SDS011;43499;52.366;12.912;2022-12-10T03:25:28;36.85;;;14.82;;
57667;SDS011;43499;52.366;12.912;2022-12-10T03:26:31;31.70;;;14.45;;
57667;SDS011;43499;52.366;12.912;2022-12-10T03:27:33;31.35;;;14.82;;
57667;SDS011;43499;52.366;12.912;2022-12-10T03:28:38;34.58;;;14.52;;
57667;SDS011;43499;52.366;12.912;2022-12-10T03:29:50;31.25;;;13.75;;
57667;SDS011;43499;52.366;12.912;2022-12-10T03:30:54;29.88;;;14.80;;
57667;SDS011;43499;52.366;12.912;2022-12-10T03:31:56;30.20;;;14.07;;
57667;SDS011;43499;52.366;12.912;2022-12-10T03:32:59;32.22;;;14.80;;
57667;SDS011;43499;52.366;12.912;2022-12-10T03:34:01;29.98;;;14.40;;
57667;SDS011;43499;52.366;12.912;2022-12-10T03:35:03;35.05;;;14.68;;
57667;SDS011;43499;52.366;12.912;2022-12-10T03:36:06;31.95;;;15.50;;
57667;SDS011;43499;52.366;12.912;2022-12-10T03:37:09;30.25;;;12.70;;
57667;SDS011;43499;52.366;12.912;2022-12-10T03:38:12;30.25;;;14.40;;
57667;SDS011;43499;52.366;12.912;2022-12-10T03:39:14;31.17;;;14.23;;
57667;SDS011;43499;52.366;12.912;2022-12-10T03:40:17;28.83;;;13.77;;
57667;SDS011;43499;52.366;12.912;2022-12-10T03:41:22;28.27;;;13.68;;
57667;SDS011;43499;52.366;12.912;2022-12-10T03:42:23;28.10;;;14.20;;
57667;SDS011;43499;52.366;12.912;2022-12-10T03:43:24;29.63;;;13.43;;
57667;SDS011;43499;52.366;12.912;2022-12-10T03:44:32;29.63;;;13.40;;
57667;SDS011;43499;52.366;12.912;2022-12-10T03:45:34;34.40;;;14.38;;
57667;SDS011;43499;52.366;12.912;2022-12-10T03:46:35;31.90;;;13.55;;
57667;SDS011;43499;52.366;12.912;2022-12-10T03:47:36;33.15;;;13.88;;
57667;SDS011;43499;52.366;12.912;2022-12-10T03:48:37;28.70;;;13.73;;
57667;SDS011;43499;52.366;12.912;2022-12-10T03:49:38;31.77;;;13.70;;
57667;SDS011;43499;52.366;12.912;2022-12-10T03:50:39;27.08;;;13.65;;
57667;SDS011;43499;52.366;12.912;2022-12-10T03:51:40;33.45;;;14.98;;
57667;SDS011;43499;52.366;12.912;2022-12-10T03:52:41;25.65;;;12.52;;
57667;SDS011;43499;52.366;12.912;2022-12-10T03:53:43;24.35;;;12.65;;
57667;SDS011;43499;52.366;12.912;2022-12-10T03:54:44;29.65;;;14.30;;
57667;SDS011;43499;52.366;12.912;2022-12-10T03:55:45;29.48;;;14.18;;
57667;SDS011;43499;52.366;12.912;2022-12-10T03:56:46;29.83;;;14.10;;
57667;SDS011;43499;52.366;12.912;2022-12-10T03:57:47;31.75;;;14.32;;
57667;SDS011;43499;52.366;12.912;2022-12-10T03:58:48;29.30;;;14.52;;
57667;SDS011;43499;52.366;12.912;2022-12-10T03:59:49;33.45;;;14.90;;
57667;SDS011;43499;52.366;12.912;2022-12-10T04:00:50;28.30;;;14.10;;
57667;SDS011;43499;52.366;12.912;2022-12-10T04:01:52;30.00;;;14.00;;
57667;SDS011;43499;52.366;12.912;2022-12-10T04:02:54;27.48;;;14.07;;
57667;SDS011;43499;52.366;12.912;2022-12-10T04:03:55;29.05;;;13.32;;
57667;SDS011;43499;52.366;12.912;2022-12-10T04:04:56;30.67;;;13.95;;
57667;SDS011;43499;52.366;12.912;2022-12-10T04:06:00;27.42;;;13.88;;
57667;SDS011;43499;52.366;12.912;2022-12-10T04:07:03;28.52;;;14.18;;
57667;SDS011;43499;52.366;12.912;2022-12-10T04:08:04;25.88;;;13.18;;
57667;SDS011;43499;52.366;12.912;2022-12-10T04:09:05;29.67;;;14.15;;
57667;SDS011;43499;52.366;12.912;2022-12-10T04:10:07;31.60;;;14.20;;
57667;SDS011;43499;52.366;12.912;2022-12-10T04:11:08;28.95;;;14.02;;
57667;SDS011;43499;52.366;12.912;2022-12-10T04:12:11;29.27;;;13.63;;
57667;SDS011;43499;52.366;12.912;2022-12-10T04:13:12;29.25;;;13.70;;
57667;SDS011;43499;52.366;12.912;2022-12-10T04:14:31;23.10;;;11.57;;
57667;SDS011;43499;52.366;12.912;2022-12-10T04:17:11;27.33;;;12.77;;
57667;SDS011;43499;52.366;12.912;2022-12-10T04:18:13;27.13;;;13.18;;
57667;SDS011;43499;52.366;12.912;2022-12-10T04:19:15;25.17;;;11.98;;
57667;SDS011;43499;52.366;12.912;2022-12-10T04:20:18;32.47;;;15.07;;
57667;SDS011;43499;52.366;12.912;2022-12-10T04:22:58;24.33;;;11.70;;
57667;SDS011;43499;52.366;12.912;2022-12-10T04:24:19;28.38;;;13.07;;
57667;SDS011;43499;52.366;12.912;2022-12-10T04:25:41;26.38;;;12.80;;
57667;SDS011;43499;52.366;12.912;2022-12-10T04:27:04;26.05;;;12.57;;
57667;SDS011;43499;52.366;12.912;2022-12-10T04:28:08;25.67;;;13.52;;
57667;SDS011;43499;52.366;12.912;2022-12-10T04:29:09;34.03;;;14.07;;
57667;SDS011;43499;52.366;12.912;2022-12-10T04:30:11;27.38;;;13.45;;
57667;SDS011;43499;52.366;12.912;2022-12-10T04:31:13;28.55;;;13.00;;
57667;SDS011;43499;52.366;12.912;2022-12-10T04:32:14;29.70;;;12.90;;
57667;SDS011;43499;52.366;12.912;2022-12-10T04:33:16;33.50;;;14.45;;
57667;SDS011;43499;52.366;12.912;2022-12-10T04:34:17;28.90;;;13.70;;
57667;SDS011;43499;52.366;12.912;2022-12-10T04:35:18;29.88;;;14.88;;
57667;SDS011;43499;52.366;12.912;2022-12-10T04:36:19;30.73;;;14.80;;
57667;SDS011;43499;52.366;12.912;2022-12-10T04:37:20;33.53;;;15.25;;
57667;SDS011;43499;52.366;12.912;2022-12-10T04:38:22;29.00;;;13.73;;
57667;SDS011;43499;52.366;12.912;2022-12-10T04:39:23;33.83;;;15.05;;
57667;SDS011;43499;52.366;12.912;2022-12-10T04:40:24;32.92;;;15.68;;
57667;SDS011;43499;52.366;12.912;2022-12-10T04:41:25;28.70;;;14.02;;
57667;SDS011;43499;52.366;12.912;2022-12-10T04:42:26;30.67;;;14.77;;
57667;SDS011;43499;52.366;12.912;2022-12-10T04:43:27;29.60;;;15.00;;
57667;SDS011;43499;52.366;12.912;2022-12-10T04:44:28;32.75;;;14.43;;
57667;SDS011;43499;52.366;12.912;2022-12-10T04:45:29;30.17;;;13.80;;
57667;SDS011;43499;52.366;12.912;2022-12-10T04:46:30;30.98;;;15.25;;
57667;SDS011;43499;52.366;12.912;2022-12-10T04:47:31;29.08;;;14.07;;
57667;SDS011;43499;52.366;12.912;2022-12-10T04:48:32;30.45;;;14.20;;
57667;SDS011;43499;52.366;12.912;2022-12-10T04:49:34;34.20;;;14.82;;
57667;SDS011;43499;52.366;12.912;2022-12-10T04:50:35;29.27;;;16.25;;
57667;SDS011;43499;52.366;12.912;2022-12-10T04:51:36;32.35;;;14.35;;
57667;SDS011;43499;52.366;12.912;2022-12-10T04:52:37;33.90;;;15.30;;
57667;SDS011;43499;52.366;12.912;2022-12-10T04:53:38;28.38;;;15.38;;
57667;SDS011;43499;52.366;12.912;2022-12-10T04:54:40;27.05;;;13.15;;
57667;SDS011;43499;52.366;12.912;2022-12-10T04:55:41;33.88;;;15.25;;
57667;SDS011;43499;52.366;12.912;2022-12-10T04:56:42;28.55;;;13.98;;
57667;SDS011;43499;52.366;12.912;2022-12-10T04:57:43;30.30;;;13.63;;
57667;SDS011;43499;52.366;12.912;2022-12-10T04:58:44;29.25;;;14.57;;
57667;SDS011;43499;52.366;12.912;2022-12-10T04:59:45;31.35;;;14.70;;
57667;SDS011;43499;52.366;12.912;2022-12-10T05:00:46;28.42;;;13.68;;
57667;SDS011;43499;52.366;12.912;2022-12-10T05:01:47;29.48;;;13.60;;
57667;SDS011;43499;52.366;12.912;2022-12-10T05:02:48;35.17;;;13.77;;
57667;SDS011;43499;52.366;12.912;2022-12-10T05:03:50;29.80;;;14.10;;
57667;SDS011;43499;52.366;12.912;2022-12-10T05:04:51;26.40;;;13.20;;
57667;SDS011;43499;52.366;12.912;2022-12-10T05:05:52;28.70;;;13.68;;
57667;SDS011;43499;52.366;12.912;2022-12-10T05:06:53;30.77;;;15.88;;
57667;SDS011;43499;52.366;12.912;2022-12-10T05:07:54;28.27;;;13.35;;
57667;SDS011;43499;52.366;12.912;2022-12-10T05:08:56;26.70;;;13.52;;
57667;SDS011;43499;52.366;12.912;2022-12-10T05:09:57;30.30;;;13.48;;
57667;SDS011;43499;52.366;12.912;2022-12-10T05:11:02;32.33;;;14.40;;
57667;SDS011;43499;52.366;12.912;2022-12-10T05:12:04;29.60;;;13.82;;
57667;SDS011;43499;52.366;12.912;2022-12-10T05:13:06;31.98;;;15.35;;
57667;SDS011;43499;52.366;12.912;2022-12-10T05:14:08;32.10;;;16.00;;
57667;SDS011;43499;52.366;12.912;2022-12-10T05:15:11;33.10;;;15.10;;
57667;SDS011;43499;52.366;12.912;2022-12-10T05:16:13;27.63;;;14.00;;
57667;SDS011;43499;52.366;12.912;2022-12-10T05:17:15;29.17;;;14.88;;
57667;SDS011;43499;52.366;12.912;2022-12-10T05:18:16;32.88;;;15.68;;
57667;SDS011;43499;52.366;12.912;2022-12-10T05:19:17;32.83;;;13.80;;
57667;SDS011;43499;52.366;12.912;2022-12-10T05:20:20;35.05;;;15.48;;
57667;SDS011;43499;52.366;12.912;2022-12-10T05:21:21;35.03;;;15.68;;
57667;SDS011;43499;52.366;12.912;2022-12-10T05:22:23;33.78;;;15.63;;
57667;SDS011;43499;52.366;12.912;2022-12-10T05:23:45;33.85;;;16.83;;
57667;SDS011;43499;52.366;12.912;2022-12-10T05:24:48;31.30;;;13.93;;
57667;SDS011;43499;52.366;12.912;2022-12-10T05:25:49;29.20;;;13.57;;
57667;SDS011;43499;52.366;12.912;2022-12-10T05:27:05;32.03;;;14.20;;
57667;SDS011;43499;52.366;12.912;2022-12-10T05:28:06;28.05;;;13.60;;
57667;SDS011;43499;52.366;12.912;2022-12-10T05:29:07;32.58;;;15.88;;
57667;SDS011;43499;52.366;12.912;2022-12-10T05:30:09;33.03;;;13.80;;
57667;SDS011;43499;52.366;12.912;2022-12-10T05:31:11;32.30;;;14.93;;
57667;SDS011;43499;52.366;12.912;2022-12-10T05:32:17;28.27;;;13.55;;
57667;SDS011;43499;52.366;12.912;2022-12-10T05:33:18;38.63;;;16.38;;
57667;SDS011;43499;52.366;12.912;2022-12-10T05:34:19;35.28;;;15.13;;
57667;SDS011;43499;52.366;12.912;2022-12-10T05:35:20;30.10;;;14.90;;
57667;SDS011;43499;52.366;12.912;2022-12-10T05:36:22;31.25;;;14.77;;
57667;SDS011;43499;52.366;12.912;2022-12-10T05:37:24;32.70;;;15.00;;
57667;SDS011;43499;52.366;12.912;2022-12-10T05:38:26;31.23;;;15.90;;
57667;SDS011;43499;52.366;12.912;2022-12-10T05:39:28;32.28;;;14.50;;
57667;SDS011;43499;52.366;12.912;2022-12-10T05:40:30;30.42;;;15.05;;
57667;SDS011;43499;52.366;12.912;2022-12-10T05:41:33;33.65;;;15.57;;
57667;SDS011;43499;52.366;12.912;2022-12-10T05:42:36;30.73;;;14.57;;
57667;SDS011;43499;52.366;12.912;2022-12-10T05:43:37;30.25;;;14.57;;
57667;SDS011;43499;52.366;12.912;2022-12-10T05:44:38;34.90;;;15.82;;
57667;SDS011;43499;52.366;12.912;2022-12-10T05:45:39;29.80;;;14.85;;
57667;SDS011;43499;52.366;12.912;2022-12-10T05:46:40;25.77;;;14.25;;
57667;SDS011;43499;52.366;12.912;2022-12-10T05:47:41;29.83;;;14.88;;
57667;SDS011;43499;52.366;12.912;2022-12-10T05:48:42;29.58;;;14.63;;
57667;SDS011;43499;52.366;12.912;2022-12-10T05:49:44;35.08;;;15.23;;
57667;SDS011;43499;52.366;12.912;2022-12-10T05:50:45;31.02;;;15.45;;
57667;SDS011;43499;52.366;12.912;2022-12-10T05:51:46;30.25;;;14.13;;
57667;SDS011;43499;52.366;12.912;2022-12-10T05:52:47;31.35;;;14.73;;
57667;SDS011;43499;52.366;12.912;2022-12-10T05:53:51;30.17;;;14.70;;
57667;SDS011;43499;52.366;12.912;2022-12-10T05:54:53;32.03;;;14.98;;
57667;SDS011;43499;52.366;12.912;2022-12-10T05:56:01;29.75;;;14.60;;
57667;SDS011;43499;52.366;12.912;2022-12-10T05:57:03;35.28;;;14.55;;
57667;SDS011;43499;52.366;12.912;2022-12-10T05:58:04;32.15;;;16.17;;
57667;SDS011;43499;52.366;12.912;2022-12-10T05:59:05;28.75;;;14.00;;
57667;SDS011;43499;52.366;12.912;2022-12-10T06:00:06;30.38;;;14.45;;
57667;SDS011;43499;52.366;12.912;2022-12-10T06:01:14;35.35;;;16.23;;
57667;SDS011;43499;52.366;12.912;2022-12-10T06:02:17;30.88;;;13.68;;
57667;SDS011;43499;52.366;12.912;2022-12-10T06:03:18;32.63;;;15.05;;
57667;SDS011;43499;52.366;12.912;2022-12-10T06:04:19;31.58;;;15.00;;
57667;SDS011;43499;52.366;12.912;2022-12-10T06:05:20;33.83;;;15.65;;
57667;SDS011;43499;52.366;12.912;2022-12-10T06:06:22;33.05;;;15.77;;
57667;SDS011;43499;52.366;12.912;2022-12-10T06:07:24;31.48;;;14.70;;
57667;SDS011;43499;52.366;12.912;2022-12-10T06:08:25;29.13;;;14.05;;
57667;SDS011;43499;52.366;12.912;2022-12-10T06:09:26;32.80;;;14.60;;
57667;SDS011;43499;52.366;12.912;2022-12-10T06:10:27;38.17;;;16.27;;
57667;SDS011;43499;52.366;12.912;2022-12-10T06:11:28;28.73;;;14.43;;
57667;SDS011;43499;52.366;12.912;2022-12-10T06:12:30;28.33;;;14.45;;
57667;SDS011;43499;52.366;12.912;2022-12-10T06:13:31;28.52;;;14.85;;
57667;SDS011;43499;52.366;12.912;2022-12-10T06:14:32;26.25;;;12.90;;
57667;SDS011;43499;52.366;12.912;2022-12-10T06:15:33;30.40;;;14.13;;
57667;SDS011;43499;52.366;12.912;2022-12-10T06:16:35;32.50;;;14.98;;
57667;SDS011;43499;52.366;12.912;2022-12-10T06:17:36;27.35;;;13.82;;
57667;SDS011;43499;52.366;12.912;2022-12-10T06:18:37;28.88;;;14.45;;
57667;SDS011;43499;52.366;12.912;2022-12-10T06:19:39;28.75;;;13.90;;
57667;SDS011;43499;52.366;12.912;2022-12-10T06:20:40;26.17;;;13.00;;
57667;SDS011;43499;52.366;12.912;2022-12-10T06:21:41;31.30;;;14.50;;